Time;durP1;ratioP1;P1;durP2;ratioP2;P2;SDS_P1;SDS_P2;PMS_P1;PMS_P2;Temp;Humidity;BMP_temperature;BMP_pressure;BME280_temperature;BME280_humidity;BME280_pressure;Samples;Min_cycle;Max_cycle;Signal;HPM_P1;HPM_P2
2021/12/18 00:00:45;;;;;;;10.68;6.55;;;;;;;3.87;65.23;100829.91;5088806;28;20272;-66
2021/12/18 00:03:18;;;;;;;8.85;6.50;;;;;;;3.81;65.18;100823.81;5088945;28;20067;-67
2021/12/18 00:05:50;;;;;;;7.43;5.25;;;;;;;3.81;65.44;100826.44;5088547;28;20083;-66
2021/12/18 00:08:23;;;;;;;11.30;6.72;;;;;;;2.83;65.29;100663.44;5088601;28;20106;-67
2021/12/18 00:10:55;;;;;;;7.82;4.90;;;;;;;3.78;65.39;100825.56;5088892;28;20041;-66
2021/12/18 00:13:28;;;;;;;9.75;6.78;;;;;;;3.75;65.48;100825.59;5087850;28;20040;-67
2021/12/18 00:16:02;;;;;;;10.93;5.85;;;;;;;3.75;65.46;100834.31;5088741;28;20052;-67
2021/12/18 00:18:35;;;;;;;8.52;5.82;;;;;;;3.77;65.46;100839.56;5088406;28;20052;-66
2021/12/18 00:21:09;;;;;;;8.32;5.53;;;;;;;3.74;65.53;100850.06;5088429;28;20079;-66
2021/12/18 00:23:41;;;;;;;10.27;6.10;;;;;;;3.77;65.62;100858.78;5088394;28;20063;-66
2021/12/18 00:26:13;;;;;;;9.95;5.55;;;;;;;3.34;65.47;100774.19;5088595;28;20052;-66
2021/12/18 00:28:47;;;;;;;10.82;6.57;;;;;;;3.73;65.50;100849.19;5088269;28;20040;-67
2021/12/18 00:31:20;;;;;;;7.93;5.20;;;;;;;3.71;65.59;100857.94;5088549;28;20048;-66
2021/12/18 00:33:53;;;;;;;9.73;6.13;;;;;;;3.70;65.65;100857.06;5088182;28;20040;-66
2021/12/18 00:36:25;;;;;;;9.48;6.20;;;;;;;3.74;65.46;100855.31;5088368;28;20041;-66
2021/12/18 00:38:57;;;;;;;8.10;5.50;;;;;;;3.72;65.64;100851.81;5088452;28;20040;-66
2021/12/18 00:41:47;;;;;;;12.93;6.18;;;;;;;3.74;65.60;100853.56;5087354;28;20086;-66
2021/12/18 00:44:20;;;;;;;9.63;5.70;;;;;;;3.73;65.64;100854.44;5088035;28;20086;-66
2021/12/18 00:46:53;;;;;;;8.82;5.90;;;;;;;3.75;65.62;100836.06;5088007;28;20044;-66
2021/12/18 00:49:25;;;;;;;8.07;5.57;;;;;;;3.74;65.62;100827.34;5087943;28;20086;-66
2021/12/18 00:51:58;;;;;;;9.25;5.95;;;;;;;3.48;65.56;100782.00;5087917;28;20040;-66
2021/12/18 00:54:31;;;;;;;8.20;5.78;;;;;;;3.71;65.59;100829.09;5088094;28;20041;-66
2021/12/18 00:57:03;;;;;;;7.25;5.05;;;;;;;3.74;65.70;100834.34;5087709;28;20178;-66
2021/12/18 00:59:36;;;;;;;7.75;5.47;;;;;;;3.43;65.57;100776.78;5087772;28;20093;-66
2021/12/18 01:02:10;;;;;;;7.90;5.07;;;;;;;3.74;65.55;100824.72;5087671;28;20292;-66
2021/12/18 01:04:42;;;;;;;11.53;4.83;;;;;;;3.75;65.60;100833.47;5087764;28;20040;-66
2021/12/18 01:07:15;;;;;;;10.00;5.28;;;;;;;3.78;65.55;100836.06;5087886;28;20049;-66
2021/12/18 01:09:58;;;;;;;9.52;5.18;;;;;;;3.76;65.63;100832.56;5087434;28;20071;-66
2021/12/18 01:12:36;;;;;;;8.13;5.25;;;;;;;3.74;65.62;100839.56;5087479;28;20048;-66
2021/12/18 01:15:17;;;;;;;8.82;5.82;;;;;;;3.73;65.61;100856.19;5087713;28;20289;-66
2021/12/18 01:23:33;;;;;;;9.80;4.80;;;;;;;3.74;65.56;100847.44;5087284;28;20040;-66
2021/12/18 01:26:05;;;;;;;8.73;5.73;;;;;;;3.76;65.50;100843.06;5087501;28;20044;-66
2021/12/18 01:28:37;;;;;;;7.32;5.95;;;;;;;3.78;65.51;100841.31;5087093;28;20040;-66
2021/12/18 01:31:10;;;;;;;9.02;5.40;;;;;;;3.75;65.74;100841.31;5086566;28;20093;-66
2021/12/18 01:33:44;;;;;;;10.45;6.53;;;;;;;3.76;65.66;100846.56;5087058;28;20044;-66
2021/12/18 01:36:16;;;;;;;8.30;5.38;;;;;;;3.75;65.79;100857.06;5087224;28;20083;-66
2021/12/18 01:38:48;;;;;;;12.18;6.38;;;;;;;-1.16;65.29;100007.56;5086940;28;20086;-66
2021/12/18 01:41:20;;;;;;;13.02;6.40;;;;;;;3.77;65.80;100857.91;5087216;28;20040;-66
2021/12/18 01:51:11;;;;;;;7.85;5.97;;;;;;;3.78;65.59;100854.41;5045497;28;20046;-65
2021/12/18 01:52:44;;;;;;;14.13;6.47;;;;;;;3.78;65.68;100854.41;5079819;28;20079;-66
2021/12/18 01:55:13;;;;;;;8.73;5.95;;;;;;;2.94;65.50;100728.88;5086915;28;20036;-66
2021/12/18 01:57:43;;;;;;;11.25;5.93;;;;;;;3.78;65.58;100863.16;5087074;28;20043;-66
2021/12/18 02:00:17;;;;;;;7.95;5.50;;;;;;;3.33;65.45;100809.13;5086521;28;20037;-66
2021/12/18 02:02:50;;;;;;;9.20;5.40;;;;;;;3.82;65.55;100890.25;5086777;28;20239;-65
2021/12/18 02:05:24;;;;;;;9.82;5.93;;;;;;;3.84;65.62;100864.88;5086489;28;20235;-66
2021/12/18 02:07:56;;;;;;;8.82;4.55;;;;;;;3.82;65.63;100861.41;5086153;28;20044;-66
2021/12/18 02:10:31;;;;;;;8.77;6.28;;;;;;;3.84;65.91;100857.03;5086632;28;20045;-66
2021/12/18 02:13:10;;;;;;;8.85;5.63;;;;;;;3.84;65.63;100864.88;5086276;28;20040;-65
2021/12/18 02:21:27;;;;;;;10.32;7.03;;;;;;;-1.91;65.34;99954.44;5086123;28;20040;-66
2021/12/18 02:24:01;;;;;;;7.53;5.30;;;;;;;2.56;65.80;100671.38;5086082;28;20040;-66
2021/12/18 02:26:34;;;;;;;9.20;5.93;;;;;;;3.83;65.90;100863.16;5086307;28;20086;-66
2021/12/18 02:29:08;;;;;;;8.45;5.63;;;;;;;3.82;65.92;100867.53;5085999;28;20040;-66
2021/12/18 02:31:41;;;;;;;8.48;6.38;;;;;;;3.82;65.98;100864.03;5086260;28;20342;-66
2021/12/18 02:34:17;;;;;;;7.93;5.70;;;;;;;3.81;65.88;100872.75;5085846;28;20346;-66
2021/12/18 02:36:52;;;;;;;9.25;7.28;;;;;;;3.17;65.89;100778.59;5086095;28;20045;-66
2021/12/18 02:39:40;;;;;;;10.43;6.80;;;;;;;3.85;66.15;100887.63;5086209;28;20040;-66
2021/12/18 02:42:18;;;;;;;9.98;6.18;;;;;;;3.82;66.05;100885.00;5085819;28;20044;-65
2021/12/18 02:44:51;;;;;;;10.10;6.60;;;;;;;3.85;66.01;100890.25;5086084;28;20044;-66
2021/12/18 02:47:23;;;;;;;9.15;6.57;;;;;;;3.84;66.03;100884.13;5086067;28;20052;-66
2021/12/18 02:49:55;;;;;;;10.07;6.22;;;;;;;2.29;66.05;100611.25;5085759;28;20045;-66
2021/12/18 02:52:31;;;;;;;10.15;7.05;;;;;;;3.81;66.29;100884.13;5085972;28;20088;-66
2021/12/18 02:55:03;;;;;;;9.18;6.43;;;;;;;3.81;66.20;100883.25;5085914;28;20297;-67
2021/12/18 02:57:35;;;;;;;10.90;7.30;;;;;;;3.78;66.30;100873.66;5085537;28;20052;-67
2021/12/18 03:00:07;;;;;;;10.18;6.80;;;;;;;3.81;66.39;100871.00;5085819;28;20083;-67
2021/12/18 03:02:41;;;;;;;14.50;7.47;;;;;;;3.77;66.50;100878.91;5084747;28;20260;-67
2021/12/18 03:05:19;;;;;;;11.57;7.88;;;;;;;3.78;66.62;100880.66;5085784;28;20280;-66
2021/12/18 03:08:00;;;;;;;11.30;6.90;;;;;;;3.78;66.59;100881.53;5085570;28;20044;-66
2021/12/18 03:19:41;;;;;;;10.23;6.68;;;;;;;3.81;66.65;100892.00;5085604;28;20090;-66
2021/12/18 03:24:58;;;;;;;14.27;8.30;;;;;;;3.50;66.63;100846.66;5085767;28;20086;-66
2021/12/18 03:27:30;;;;;;;10.82;6.97;;;;;;;3.83;66.61;100886.75;5089781;28;20044;-66
2021/12/18 03:30:04;;;;;;;11.77;6.95;;;;;;;3.83;66.63;100892.00;5089469;28;20044;-67
2021/12/18 03:32:33;;;;;;;10.55;7.00;;;;;;;2.84;66.59;100766.44;5089638;28;20029;-66
2021/12/18 03:35:04;;;;;;;12.23;6.82;;;;;;;3.84;66.65;100898.97;5089429;28;20117;-67
2021/12/18 03:37:34;;;;;;;9.85;7.90;;;;;;;3.82;66.73;100892.88;5089152;28;20048;-67
2021/12/18 03:40:07;;;;;;;10.63;7.35;;;;;;;3.82;66.71;100885.00;5089545;28;20055;-66
2021/12/18 03:42:39;;;;;;;9.88;7.35;;;;;;;3.80;66.81;100890.25;5089190;28;20048;-66
2021/12/18 03:45:10;;;;;;;9.40;6.70;;;;;;;3.78;66.71;100892.00;5089129;28;20040;-66
2021/12/18 03:47:39;;;;;;;10.98;7.30;;;;;;;3.82;66.86;100893.75;5088951;28;20090;-66
2021/12/18 03:50:10;;;;;;;10.63;7.50;;;;;;;3.11;66.83;100792.59;5089024;28;20058;-67
2021/12/18 03:52:39;;;;;;;11.02;7.18;;;;;;;3.82;66.78;100885.00;5089197;28;20342;-66
2021/12/18 03:55:10;;;;;;;9.38;7.15;;;;;;;3.82;66.79;100880.63;5088149;28;20237;-66
2021/12/18 03:57:39;;;;;;;12.88;8.30;;;;;;;3.79;66.86;100883.25;5088792;28;20284;-67
2021/12/18 04:00:13;;;;;;;12.10;7.60;;;;;;;3.77;66.88;100885.03;5088840;28;20239;-66
2021/12/18 04:02:45;;;;;;;10.45;7.50;;;;;;;3.80;66.86;100886.75;5089039;28;20087;-66
2021/12/18 04:05:17;;;;;;;11.75;7.47;;;;;;;3.80;66.74;100892.00;5088699;28;20044;-66
2021/12/18 04:07:50;;;;;;;10.00;7.40;;;;;;;3.74;66.79;100897.25;5088954;28;20178;-66
2021/12/18 04:10:24;;;;;;;10.50;7.57;;;;;;;3.69;66.99;100892.03;5088925;28;20347;-66
2021/12/18 04:12:59;;;;;;;10.23;8.02;;;;;;;3.70;66.98;100885.91;5088602;28;20044;-66
2021/12/18 04:15:32;;;;;;;13.13;8.18;;;;;;;3.74;67.02;100885.03;5088592;28;20037;-66
2021/12/18 04:18:04;;;;;;;13.30;8.23;;;;;;;3.74;66.96;100887.66;5088749;28;20238;-66
2021/12/18 04:20:37;;;;;;;11.93;8.48;;;;;;;3.75;66.95;100886.78;5088481;28;20044;-66
2021/12/18 04:23:09;;;;;;;10.63;7.70;;;;;;;3.31;66.87;100825.72;5088744;28;20044;-66
2021/12/18 04:25:43;;;;;;;13.13;7.82;;;;;;;3.75;66.91;100896.38;5088371;28;20040;-66
2021/12/18 04:28:15;;;;;;;12.88;7.68;;;;;;;3.76;66.91;100891.13;5088620;28;20045;-66
2021/12/18 04:30:48;;;;;;;12.20;8.60;;;;;;;3.74;66.98;100878.91;5088559;28;20040;-67
2021/12/18 04:33:20;;;;;;;10.35;7.40;;;;;;;3.73;67.07;100892.91;5088274;28;20189;-66
2021/12/18 04:35:52;;;;;;;11.20;7.63;;;;;;;3.73;67.24;100900.75;5088171;28;20082;-66
2021/12/18 04:38:24;;;;;;;10.30;7.70;;;;;;;3.70;67.26;100893.78;5087609;28;20044;-66
2021/12/18 04:40:58;;;;;;;12.85;8.65;;;;;;;3.68;67.41;100897.28;5088084;28;20048;-66
2021/12/18 04:43:30;;;;;;;12.32;8.15;;;;;;;3.70;67.48;100903.41;5088068;28;20040;-66
2021/12/18 04:46:02;;;;;;;11.45;9.10;;;;;;;3.69;67.36;100905.16;5088325;28;20201;-66
2021/12/18 04:48:35;;;;;;;12.80;9.10;;;;;;;3.68;67.35;100903.41;5087955;28;20041;-67
2021/12/18 04:51:07;;;;;;;11.60;8.63;;;;;;;3.72;67.29;100909.50;5088198;28;20090;-66
2021/12/18 04:53:39;;;;;;;13.20;8.50;;;;;;;3.72;67.46;100913.00;5088149;28;20048;-66
2021/12/18 04:56:12;;;;;;;13.23;9.13;;;;;;;3.71;67.33;100911.25;5087856;28;20098;-66
2021/12/18 04:58:45;;;;;;;11.05;8.40;;;;;;;3.69;67.68;100920.00;5087710;28;20097;-66
2021/12/18 05:01:17;;;;;;;11.65;8.88;;;;;;;3.72;67.50;100917.38;5087773;28;20042;-66
2021/12/18 05:03:50;;;;;;;12.40;9.07;;;;;;;3.71;67.48;100913.00;5087678;28;20045;-66
2021/12/18 05:06:22;;;;;;;10.65;8.10;;;;;;;3.70;67.64;100916.50;5087915;28;20086;-66
2021/12/18 05:08:54;;;;;;;12.68;9.70;;;;;;;3.71;67.65;100921.75;5087521;28;20114;-66
2021/12/18 05:11:28;;;;;;;14.65;9.68;;;;;;;3.71;67.61;100927.00;5087821;28;20346;-66
2021/12/18 05:14:00;;;;;;;12.95;9.75;;;;;;;3.71;67.67;100920.88;5087510;28;20091;-66
2021/12/18 05:16:32;;;;;;;12.68;8.80;;;;;;;3.71;67.70;100927.00;5087503;28;20036;-66
2021/12/18 05:19:04;;;;;;;12.15;9.32;;;;;;;3.72;67.67;100933.09;5087612;28;20090;-66
2021/12/18 05:21:37;;;;;;;12.73;9.52;;;;;;;3.72;67.71;100931.38;5086651;28;20040;-66
2021/12/18 05:24:09;;;;;;;10.77;8.90;;;;;;;3.68;67.82;100937.50;5087280;28;20079;-66
2021/12/18 05:26:42;;;;;;;10.38;7.75;;;;;;;3.69;67.75;100936.63;5087228;28;20036;-66
2021/12/18 05:29:14;;;;;;;12.85;9.73;;;;;;;3.69;67.65;100939.22;5087185;28;20045;-66
2021/12/18 05:31:47;;;;;;;15.13;10.15;;;;;;;3.42;67.57;100881.63;5087389;28;20044;-66
2021/12/18 05:34:22;;;;;;;11.73;8.80;;;;;;;3.67;67.73;100932.25;5087311;28;20049;-66
2021/12/18 05:37:17;;;;;;;;;;;;;;;3.61;67.87;100932.25;5087534;28;20086;-66
2021/12/18 05:39:49;;;;;;;11.18;8.27;;;;;;;3.62;67.94;100939.25;5086428;28;19920;-67
2021/12/18 05:42:23;;;;;;;14.38;9.73;;;;;;;3.14;67.74;100860.69;5087236;28;20044;-67
2021/12/18 05:44:55;;;;;;;13.05;9.07;;;;;;;3.66;67.67;100951.47;5087143;28;20062;-66
2021/12/18 05:47:27;;;;;;;12.40;8.93;;;;;;;3.65;67.79;100955.84;5087010;28;20082;-66
2021/12/18 05:49:59;;;;;;;14.43;10.45;;;;;;;3.69;67.70;100960.22;5085664;28;20320;-66
2021/12/18 05:52:32;;;;;;;14.80;9.95;;;;;;;3.67;67.64;100967.22;5086577;28;20040;-66
2021/12/18 05:55:05;;;;;;;13.60;10.05;;;;;;;3.69;67.49;100965.47;5086742;28;20287;-66
2021/12/18 05:57:35;;;;;;;11.55;7.88;;;;;;;3.70;67.71;100971.56;5087253;28;20063;-66
2021/12/18 06:00:06;;;;;;;12.23;8.77;;;;;;;2.98;67.52;100881.66;5086545;28;20223;-66
2021/12/18 06:02:35;;;;;;;12.77;8.77;;;;;;;3.35;67.64;100917.44;5086343;28;20067;-66
2021/12/18 06:05:07;;;;;;;12.20;8.07;;;;;;;3.69;67.55;100970.69;5086466;28;20048;-66
2021/12/18 06:07:51;;;;;;;13.70;9.55;;;;;;;3.74;67.46;100968.06;5086164;28;20086;-66
2021/12/18 06:10:25;;;;;;;12.70;9.05;;;;;;;3.71;67.29;100973.31;5086179;28;20089;-66
2021/12/18 06:13:02;;;;;;;10.60;8.10;;;;;;;3.70;67.22;100966.34;5086054;28;20090;-66
2021/12/18 06:15:34;;;;;;;11.65;8.50;;;;;;;3.67;67.37;100967.22;5086104;28;20048;-66
2021/12/18 06:18:06;;;;;;;12.90;8.57;;;;;;;3.62;67.52;100975.94;5086247;28;20337;-66
2021/12/18 06:20:38;;;;;;;11.73;8.15;;;;;;;3.58;67.47;100975.09;5086080;28;20177;-66
2021/12/18 06:23:10;;;;;;;14.95;10.63;;;;;;;3.50;67.63;100968.97;5086147;28;20247;-66
2021/12/18 06:25:43;;;;;;;13.70;10.32;;;;;;;3.49;67.85;100965.47;5086134;28;20247;-66
2021/12/18 06:28:16;;;;;;;14.88;10.55;;;;;;;3.48;67.75;100970.72;5085414;28;20067;-66
2021/12/18 06:30:49;;;;;;;13.95;9.80;;;;;;;3.47;67.83;100975.09;5085961;28;20041;-66
2021/12/18 06:33:21;;;;;;;12.88;10.32;;;;;;;3.44;67.91;100975.09;5085963;28;20044;-66
2021/12/18 06:35:54;;;;;;;12.77;9.23;;;;;;;3.47;68.01;100979.47;5085421;28;20044;-66
2021/12/18 06:38:26;;;;;;;12.43;9.35;;;;;;;3.46;68.12;100986.44;5086171;28;20041;-66
2021/12/18 06:40:58;;;;;;;14.38;9.65;;;;;;;3.45;68.04;100970.72;5085789;28;20066;-66
2021/12/18 06:43:32;;;;;;;13.25;9.15;;;;;;;3.43;68.16;100983.84;5085781;28;20078;-66
2021/12/18 06:46:04;;;;;;;15.10;10.18;;;;;;;3.43;68.09;100989.06;5086030;28;20102;-66
2021/12/18 06:48:36;;;;;;;15.60;11.68;;;;;;;3.46;67.99;100986.44;5085703;28;20044;-66
2021/12/18 06:51:08;;;;;;;13.75;9.52;;;;;;;3.44;68.20;100988.19;5085691;28;20285;-66
2021/12/18 06:53:41;;;;;;;12.80;9.05;;;;;;;3.43;68.06;100983.84;5085587;28;20044;-66
2021/12/18 06:56:13;;;;;;;17.00;11.25;;;;;;;3.41;68.15;100977.72;5085586;28;20138;-66
2021/12/18 06:58:47;;;;;;;13.07;9.93;;;;;;;3.36;68.25;100973.34;5085822;28;20086;-66
2021/12/18 07:01:19;;;;;;;14.77;10.75;;;;;;;3.38;68.36;100982.97;5085246;28;20082;-66
2021/12/18 07:03:51;;;;;;;16.60;10.18;;;;;;;3.11;68.31;100934.03;5085772;28;20090;-66
2021/12/18 07:06:24;;;;;;;15.70;11.00;;;;;;;3.38;68.17;100980.34;5085744;28;20040;-66
2021/12/18 07:08:56;;;;;;;14.35;10.52;;;;;;;3.36;68.35;100975.97;5084965;28;20114;-66
2021/12/18 07:11:30;;;;;;;15.23;11.15;;;;;;;3.37;68.19;100978.59;5085646;28;20247;-66
2021/12/18 07:14:03;;;;;;;14.80;10.15;;;;;;;3.36;67.99;100976.84;5085679;28;20223;-66
2021/12/18 07:16:36;;;;;;;14.65;10.63;;;;;;;3.36;68.08;100968.09;5085437;28;20086;-66
2021/12/18 07:19:08;;;;;;;12.02;9.43;;;;;;;3.35;68.22;100975.09;5085577;28;20056;-66
2021/12/18 07:21:40;;;;;;;16.30;10.00;;;;;;;3.35;68.11;100977.72;5085093;28;20044;-66
2021/12/18 07:24:12;;;;;;;15.25;10.60;;;;;;;3.34;67.93;100975.97;5085632;28;20082;-66
2021/12/18 07:26:44;;;;;;;14.77;10.77;;;;;;;3.37;67.97;100975.97;5085329;28;20066;-66
2021/12/18 07:29:19;;;;;;;15.40;9.40;;;;;;;3.35;68.03;100975.09;5085542;28;20048;-66
2021/12/18 07:31:51;;;;;;;15.30;10.65;;;;;;;-1.49;67.66;100147.00;5084931;28;20335;-66
2021/12/18 07:34:23;;;;;;;13.70;10.38;;;;;;;3.34;67.77;100970.72;5085232;28;20090;-66
2021/12/18 07:36:55;;;;;;;14.90;9.88;;;;;;;3.29;67.63;100964.63;5085477;28;20285;-66
2021/12/18 07:39:28;;;;;;;14.73;10.32;;;;;;;3.28;67.87;100970.72;5085091;28;20354;-66
2021/12/18 07:42:00;;;;;;;15.45;11.15;;;;;;;3.25;67.88;100964.63;5085373;28;20040;-67
2021/12/18 07:44:34;;;;;;;15.15;10.15;;;;;;;3.27;67.68;100968.97;5085339;28;20044;-66
2021/12/18 07:47:06;;;;;;;18.77;11.43;;;;;;;3.28;67.91;100978.59;5085287;28;20102;-66
2021/12/18 07:49:39;;;;;;;15.32;11.27;;;;;;;3.24;67.81;100970.72;5085026;28;20051;-66
2021/12/18 07:52:12;;;;;;;16.85;9.93;;;;;;;2.47;67.57;100844.09;5085311;28;20044;-66
2021/12/18 07:54:44;;;;;;;15.63;11.63;;;;;;;2.51;67.79;100843.22;5084933;28;20232;-66
2021/12/18 07:57:17;;;;;;;16.45;12.32;;;;;;;3.23;67.53;100976.84;5085255;28;20153;-66
2021/12/18 07:59:50;;;;;;;16.95;9.88;;;;;;;3.17;67.70;100975.09;5084871;28;20205;-66
2021/12/18 08:02:22;;;;;;;14.85;10.07;;;;;;;3.18;67.53;100971.59;5085301;28;20044;-67
2021/12/18 08:04:55;;;;;;;16.52;9.60;;;;;;;3.15;67.46;100989.94;5085212;28;20040;-67
2021/12/18 08:07:27;;;;;;;12.70;9.40;;;;;;;3.16;67.48;100981.22;5085146;28;20090;-67
2021/12/18 08:09:59;;;;;;;13.35;9.90;;;;;;;3.16;67.37;101004.78;5084706;28;20056;-67
2021/12/18 08:12:32;;;;;;;14.20;10.60;;;;;;;3.17;67.36;100989.06;5086093;28;20086;-67
2021/12/18 08:15:07;;;;;;;13.63;8.90;;;;;;;3.23;67.58;100995.19;5088840;28;20036;-67
2021/12/18 08:17:39;;;;;;;13.88;9.30;;;;;;;2.42;67.31;100833.63;5088789;28;20051;-67
2021/12/18 08:20:10;;;;;;;13.25;9.57;;;;;;;3.51;66.79;100981.22;5088357;28;20051;-65
2021/12/18 08:22:39;;;;;;;14.20;10.48;;;;;;;3.54;66.49;100978.59;5088606;28;20049;-65
2021/12/18 08:25:10;;;;;;;13.82;9.60;;;;;;;3.56;66.44;100982.06;5088520;28;20103;-66
2021/12/18 08:27:40;;;;;;;12.13;7.93;;;;;;;3.56;66.24;100982.06;5088303;28;20081;-67
2021/12/18 08:30:13;;;;;;;19.05;13.43;;;;;;;3.35;67.22;100925.31;5088309;28;20045;-67
2021/12/18 08:32:45;;;;;;;17.02;12.15;;;;;;;3.80;66.90;101130.66;5087664;28;20045;-67
2021/12/18 08:35:17;;;;;;;17.25;11.02;;;;;;;3.85;66.17;100980.28;5088063;28;20044;-67
2021/12/18 08:37:49;;;;;;;12.48;9.15;;;;;;;3.79;65.75;100987.28;5088417;28;20066;-67
2021/12/18 08:40:22;;;;;;;13.88;9.40;;;;;;;3.48;65.52;100936.66;5087891;28;20044;-67
2021/12/18 08:42:54;;;;;;;13.30;9.43;;;;;;;-0.31;65.59;100285.53;5088289;28;20281;-66
2021/12/18 08:45:28;;;;;;;16.17;10.45;;;;;;;3.94;66.09;100983.75;5087979;28;20082;-67
2021/12/18 08:48:00;;;;;;;15.63;11.48;;;;;;;3.97;65.90;100992.50;5087825;28;20196;-67
2021/12/18 08:50:32;;;;;;;15.98;11.07;;;;;;;4.02;65.67;100985.50;5087774;28;20044;-66
2021/12/18 08:53:05;;;;;;;14.80;11.27;;;;;;;4.08;65.44;100980.22;5087690;28;20205;-67
2021/12/18 08:55:37;;;;;;;13.02;9.93;;;;;;;4.22;64.76;100976.72;5087678;28;20082;-66
2021/12/18 08:58:10;;;;;;;13.10;9.90;;;;;;;4.26;64.89;100974.06;5087459;28;20044;-67
2021/12/18 09:00:44;;;;;;;15.95;11.68;;;;;;;4.30;64.97;100983.69;5088562;28;20052;-67
2021/12/18 09:03:16;;;;;;;17.92;10.52;;;;;;;4.29;64.86;100975.81;5087809;28;20048;-67
2021/12/18 09:05:49;;;;;;;17.05;12.63;;;;;;;4.45;64.89;100983.63;5087554;28;20040;-67
2021/12/18 09:08:21;;;;;;;15.85;10.15;;;;;;;4.53;64.51;100975.72;5087639;28;20044;-67
2021/12/18 09:10:53;;;;;;;13.43;10.25;;;;;;;4.75;64.30;100976.47;5087599;28;20098;-67
2021/12/18 09:13:26;;;;;;;13.48;10.52;;;;;;;4.94;63.49;100980.78;5087578;28;20044;-67
2021/12/18 09:15:59;;;;;;;13.43;10.32;;;;;;;5.16;63.21;100978.00;5087360;28;20301;-67
2021/12/18 09:18:31;;;;;;;15.02;9.88;;;;;;;5.27;62.88;100979.66;5087416;28;20041;-67
2021/12/18 09:21:04;;;;;;;14.70;10.52;;;;;;;5.29;62.72;100975.25;5087092;28;20040;-66
2021/12/18 09:23:36;;;;;;;13.13;9.82;;;;;;;5.28;62.84;100967.38;5086707;28;20041;-66
2021/12/18 09:26:08;;;;;;;13.48;8.73;;;;;;;5.30;62.88;100970.88;5087193;28;20227;-66
2021/12/18 09:28:40;;;;;;;13.63;10.00;;;;;;;4.97;62.20;100906.31;5087141;28;20105;-67
2021/12/18 09:31:14;;;;;;;15.23;10.27;;;;;;;5.37;62.19;100970.81;5087092;28;20045;-67
2021/12/18 09:33:46;;;;;;;15.52;10.48;;;;;;;5.47;62.36;100968.97;5086926;28;20347;-67
2021/12/18 09:36:19;;;;;;;13.18;9.02;;;;;;;5.49;61.89;100947.91;5087135;28;20040;-67
2021/12/18 09:38:51;;;;;;;11.70;9.07;;;;;;;5.47;61.92;100952.31;5087161;28;20044;-67
2021/12/18 09:41:24;;;;;;;15.13;10.57;;;;;;;5.44;62.42;100940.94;5086736;28;20209;-67
2021/12/18 09:43:57;;;;;;;14.82;9.95;;;;;;;5.41;61.63;100933.09;5086771;28;20090;-67
2021/12/18 09:46:32;;;;;;;10.82;7.45;;;;;;;5.52;61.85;100930.34;5086708;28;20045;-67
2021/12/18 09:49:05;;;;;;;17.55;9.27;;;;;;;5.46;61.97;100925.16;5086968;28;20044;-66
2021/12/18 09:51:37;;;;;;;12.23;8.68;;;;;;;5.35;61.90;100922.63;5086660;28;20090;-67
2021/12/18 09:54:10;;;;;;;13.43;9.32;;;;;;;5.26;61.56;100920.06;5086878;28;20112;-67
2021/12/18 09:56:42;;;;;;;13.40;9.98;;;;;;;5.36;61.96;100905.97;5086791;28;20041;-67
2021/12/18 09:59:15;;;;;;;12.88;10.95;;;;;;;5.50;61.81;100900.56;5086505;28;20044;-67
2021/12/18 10:01:49;;;;;;;11.38;9.15;;;;;;;5.56;61.62;100902.28;5085258;28;20041;-67
2021/12/18 10:04:27;;;;;;;13.73;9.68;;;;;;;4.72;60.64;100740.97;5086177;28;20041;-67
2021/12/18 10:07:01;;;;;;;12.60;8.60;;;;;;;5.92;61.05;100898.38;5086604;28;20044;-67
2021/12/18 10:09:36;;;;;;;12.93;9.23;;;;;;;6.11;60.39;100892.00;5086135;28;20056;-67
2021/12/18 10:12:20;;;;;;;15.32;9.98;;;;;;;6.40;59.11;100886.34;5085595;28;20045;-67
2021/12/18 10:14:55;;;;;;;13.20;8.65;;;;;;;6.27;58.93;100846.13;5086179;28;20280;-67
2021/12/18 10:17:31;;;;;;;11.13;8.13;;;;;;;6.60;58.79;100876.38;5086031;28;20041;-67
2021/12/18 10:20:20;;;;;;;13.30;11.02;;;;;;;6.90;57.35;100882.13;5085909;28;20052;-67
2021/12/18 10:22:55;;;;;;;10.50;7.88;;;;;;;7.06;58.17;100880.97;5085846;28;20094;-67
2021/12/18 10:25:29;;;;;;;11.63;8.82;;;;;;;7.18;57.60;100871.97;5085451;28;20090;-67
2021/12/18 10:28:09;;;;;;;13.32;8.70;;;;;;;7.37;55.71;100871.66;5085482;28;20354;-67
2021/12/18 10:30:47;;;;;;;9.30;6.95;;;;;;;7.55;55.73;100870.47;5085775;28;20090;-67
2021/12/18 10:33:27;;;;;;;11.30;8.48;;;;;;;7.62;56.14;100868.56;5085805;28;20293;-67
2021/12/18 10:36:01;;;;;;;10.70;7.95;;;;;;;7.80;55.63;100855.00;5085396;28;20089;-67
2021/12/18 10:38:42;;;;;;;11.20;7.07;;;;;;;7.98;54.61;100862.56;5085566;28;20040;-66
2021/12/18 10:41:27;;;;;;;12.10;7.70;;;;;;;8.09;54.84;100864.09;5085674;28;20040;-67
2021/12/18 10:44:04;;;;;;;10.55;7.30;;;;;;;8.27;53.76;100855.78;5085536;28;20044;-67
2021/12/18 10:46:39;;;;;;;9.45;7.07;;;;;;;8.21;55.19;100832.16;5085515;28;20293;-67
2021/12/18 10:49:13;;;;;;;;;;;;;;;7.95;52.97;100841.50;5086088;28;20040;-67
2021/12/18 10:51:48;;;;;;;8.27;6.60;;;;;;;7.93;56.17;100847.72;5085586;28;19916;-67
2021/12/18 10:54:23;;;;;;;8.77;6.38;;;;;;;6.82;55.41;100668.78;5085671;28;20040;-67
2021/12/18 10:56:56;;;;;;;8.93;6.72;;;;;;;7.54;56.75;100812.44;5085671;28;20048;-67
2021/12/18 10:59:31;;;;;;;8.60;5.80;;;;;;;7.29;56.88;100806.72;5085744;28;20040;-67
2021/12/18 11:02:05;;;;;;;9.32;6.65;;;;;;;7.20;57.25;100805.13;5085643;28;20289;-67
2021/12/18 11:04:41;;;;;;;10.45;6.78;;;;;;;7.11;56.85;100807.06;5085642;28;20288;-67
2021/12/18 11:07:18;;;;;;;12.02;6.90;;;;;;;7.07;56.91;100806.25;5084695;28;20182;-67
2021/12/18 11:10:11;;;;;;;10.52;8.07;;;;;;;6.95;58.01;100803.84;5085248;28;20102;-67
2021/12/18 11:15:36;;;;;;;10.00;7.40;;;;;;;6.70;58.24;100804.22;5076356;28;20056;-67
2021/12/18 11:18:10;;;;;;;13.75;7.53;;;;;;;6.68;58.80;100795.47;5084556;28;20049;-67
2021/12/18 11:20:44;;;;;;;9.63;6.90;;;;;;;6.65;57.92;100790.25;5085334;28;20086;-67
2021/12/18 11:23:22;;;;;;;10.88;7.43;;;;;;;5.89;58.91;100691.41;5085205;28;20098;-67
2021/12/18 11:25:55;;;;;;;10.45;7.88;;;;;;;6.48;58.69;100779.13;5085146;28;20044;-67
2021/12/18 11:28:30;;;;;;;11.18;7.32;;;;;;;6.31;59.01;100776.75;5085342;28;20094;-67
2021/12/18 11:31:03;;;;;;;10.10;6.90;;;;;;;5.34;59.61;100625.56;5085400;28;20052;-67
2021/12/18 11:33:35;;;;;;;10.45;7.38;;;;;;;6.20;58.42;100772.53;5084871;28;20078;-67
2021/12/18 11:36:09;;;;;;;11.30;8.27;;;;;;;6.25;59.01;100778.59;5085340;28;20044;-67
2021/12/18 11:38:45;;;;;;;11.33;7.57;;;;;;;6.13;59.09;100748.06;5084922;28;20086;-67
2021/12/18 11:41:19;;;;;;;9.82;8.10;;;;;;;6.18;59.20;100764.66;5085019;28;20288;-67
2021/12/18 11:43:51;;;;;;;10.15;7.63;;;;;;;6.06;59.25;100762.22;5084512;28;20048;-67
2021/12/18 11:46:34;;;;;;;10.15;7.65;;;;;;;6.01;58.90;100758.78;5086127;28;20041;-67
2021/12/18 11:49:08;;;;;;;8.05;5.85;;;;;;;6.01;59.81;100757.00;5089036;28;20223;-67
2021/12/18 11:51:58;;;;;;;10.07;7.82;;;;;;;5.94;59.03;100742.19;5089318;28;20278;-67
2021/12/18 11:54:47;;;;;;;9.27;8.05;;;;;;;5.89;59.08;100746.66;5089235;28;20106;-67
2021/12/18 11:57:41;;;;;;;9.73;7.43;;;;;;;5.81;58.91;100738.00;5088901;28;20044;-67
2021/12/18 12:00:34;;;;;;;12.23;7.35;;;;;;;5.83;59.16;100733.59;5088606;28;20045;-67
2021/12/18 12:03:08;;;;;;;11.57;8.02;;;;;;;5.80;59.99;100735.38;5088653;28;20040;-67
2021/12/18 12:05:42;;;;;;;10.18;7.45;;;;;;;5.83;59.66;100732.72;5088306;28;20086;-67
2021/12/18 12:08:42;;;;;;;10.05;7.20;;;;;;;5.73;58.94;100724.09;5088228;28;20082;-67
2021/12/18 12:11:18;;;;;;;8.40;6.13;;;;;;;5.64;59.41;100730.34;5076246;28;20090;-67
2021/12/18 12:13:58;;;;;;;8.35;6.22;;;;;;;5.57;59.57;100743.59;5088280;28;20056;-67
2021/12/18 12:17:07;;;;;;;9.10;5.47;;;;;;;5.56;61.94;100734.81;5088457;28;20048;-68
2021/12/18 12:19:59;;;;;;;8.80;7.38;;;;;;;5.71;62.25;100745.16;5088115;28;20299;-68
2021/12/18 12:22:36;;;;;;;10.15;7.68;;;;;;;6.02;61.99;100737.69;5087417;28;20048;-67
2021/12/18 12:25:13;;;;;;;10.48;7.18;;;;;;;6.12;61.06;100742.81;5087998;28;20065;-67
2021/12/18 12:27:46;;;;;;;10.55;7.13;;;;;;;6.19;60.35;100744.47;5088347;28;20118;-67
2021/12/18 12:30:30;;;;;;;9.70;6.85;;;;;;;5.97;58.89;100752.69;5087699;28;20056;-67